sensor_id;sensor_type;location;lat;lon;timestamp;temperature;humidity
14798;DHT22;7490;63.708;20.368;2023-12-20T00:00:36;3.20;99.90
14798;DHT22;7490;63.708;20.368;2023-12-20T00:03:03;3.20;99.90
14798;DHT22;7490;63.708;20.368;2023-12-20T00:05:28;3.20;99.90
14798;DHT22;7490;63.708;20.368;2023-12-20T00:07:54;3.20;99.90
14798;DHT22;7490;63.708;20.368;2023-12-20T00:10:20;3.20;99.90
14798;DHT22;7490;63.708;20.368;2023-12-20T00:12:45;3.20;99.90
14798;DHT22;7490;63.708;20.368;2023-12-20T00:15:11;3.20;99.90
14798;DHT22;7490;63.708;20.368;2023-12-20T00:17:36;3.10;99.90
14798;DHT22;7490;63.708;20.368;2023-12-20T00:20:02;3.10;99.90
14798;DHT22;7490;63.708;20.368;2023-12-20T00:22:28;3.10;99.90
14798;DHT22;7490;63.708;20.368;2023-12-20T00:24:54;3.20;99.90
14798;DHT22;7490;63.708;20.368;2023-12-20T00:27:19;3.10;99.90
14798;DHT22;7490;63.708;20.368;2023-12-20T00:29:45;3.10;99.90
14798;DHT22;7490;63.708;20.368;2023-12-20T00:32:15;3.10;99.90
14798;DHT22;7490;63.708;20.368;2023-12-20T00:34:40;3.10;99.90
14798;DHT22;7490;63.708;20.368;2023-12-20T00:37:06;3.10;99.90
14798;DHT22;7490;63.708;20.368;2023-12-20T00:39:31;3.10;99.90
14798;DHT22;7490;63.708;20.368;2023-12-20T00:41:58;3.00;99.90
14798;DHT22;7490;63.708;20.368;2023-12-20T00:44:24;3.00;99.90
14798;DHT22;7490;63.708;20.368;2023-12-20T00:46:49;3.00;99.90
14798;DHT22;7490;63.708;20.368;2023-12-20T00:49:15;3.00;99.90
14798;DHT22;7490;63.708;20.368;2023-12-20T00:51:41;3.00;99.90
14798;DHT22;7490;63.708;20.368;2023-12-20T00:54:06;2.90;99.90
14798;DHT22;7490;63.708;20.368;2023-12-20T00:56:32;3.00;99.90
14798;DHT22;7490;63.708;20.368;2023-12-20T00:58:57;3.00;99.90
14798;DHT22;7490;63.708;20.368;2023-12-20T01:01:23;2.90;99.90
14798;DHT22;7490;63.708;20.368;2023-12-20T01:03:49;2.90;99.90
14798;DHT22;7490;63.708;20.368;2023-12-20T01:06:16;2.90;99.90
14798;DHT22;7490;63.708;20.368;2023-12-20T01:08:42;2.90;99.90
14798;DHT22;7490;63.708;20.368;2023-12-20T01:11:08;2.90;99.90
14798;DHT22;7490;63.708;20.368;2023-12-20T01:13:33;2.90;99.90
14798;DHT22;7490;63.708;20.368;2023-12-20T01:15:59;2.90;99.90
14798;DHT22;7490;63.708;20.368;2023-12-20T01:18:25;2.90;99.90
14798;DHT22;7490;63.708;20.368;2023-12-20T01:20:50;2.90;99.90
14798;DHT22;7490;63.708;20.368;2023-12-20T01:23:16;2.90;99.90
14798;DHT22;7490;63.708;20.368;2023-12-20T01:25:41;2.90;99.90
14798;DHT22;7490;63.708;20.368;2023-12-20T01:28:08;2.90;99.90
14798;DHT22;7490;63.708;20.368;2023-12-20T01:30:34;2.90;99.90
14798;DHT22;7490;63.708;20.368;2023-12-20T01:33:00;2.90;99.90
14798;DHT22;7490;63.708;20.368;2023-12-20T01:35:26;2.90;99.90
14798;DHT22;7490;63.708;20.368;2023-12-20T01:37:52;2.90;99.90
14798;DHT22;7490;63.708;20.368;2023-12-20T01:40:22;2.90;99.90
14798;DHT22;7490;63.708;20.368;2023-12-20T01:42:57;2.80;99.90
14798;DHT22;7490;63.708;20.368;2023-12-20T01:45:22;2.80;99.90
14798;DHT22;7490;63.708;20.368;2023-12-20T01:47:48;2.80;99.90
14798;DHT22;7490;63.708;20.368;2023-12-20T01:50:15;2.80;99.90
14798;DHT22;7490;63.708;20.368;2023-12-20T01:52:42;2.80;99.90
14798;DHT22;7490;63.708;20.368;2023-12-20T01:55:08;2.80;99.90
14798;DHT22;7490;63.708;20.368;2023-12-20T01:57:40;2.70;99.90
14798;DHT22;7490;63.708;20.368;2023-12-20T02:00:08;2.70;99.90
14798;DHT22;7490;63.708;20.368;2023-12-20T02:02:37;2.70;99.90
14798;DHT22;7490;63.708;20.368;2023-12-20T02:05:06;2.70;99.90
14798;DHT22;7490;63.708;20.368;2023-12-20T02:07:32;2.70;99.90
14798;DHT22;7490;63.708;20.368;2023-12-20T02:09:58;2.60;99.90
14798;DHT22;7490;63.708;20.368;2023-12-20T02:12:24;2.60;99.90
14798;DHT22;7490;63.708;20.368;2023-12-20T02:14:49;2.60;99.90
14798;DHT22;7490;63.708;20.368;2023-12-20T02:17:16;2.60;99.90
14798;DHT22;7490;63.708;20.368;2023-12-20T02:19:41;2.60;99.90
14798;DHT22;7490;63.708;20.368;2023-12-20T02:22:10;2.60;99.90
14798;DHT22;7490;63.708;20.368;2023-12-20T02:24:37;2.60;99.90
14798;DHT22;7490;63.708;20.368;2023-12-20T02:27:03;2.60;99.90
14798;DHT22;7490;63.708;20.368;2023-12-20T02:29:31;2.60;99.90
14798;DHT22;7490;63.708;20.368;2023-12-20T02:31:57;2.60;99.90
14798;DHT22;7490;63.708;20.368;2023-12-20T02:34:23;2.60;99.90
14798;DHT22;7490;63.708;20.368;2023-12-20T02:36:48;2.60;99.90
14798;DHT22;7490;63.708;20.368;2023-12-20T02:39:14;2.60;99.90
14798;DHT22;7490;63.708;20.368;2023-12-20T02:41:40;2.60;99.90
14798;DHT22;7490;63.708;20.368;2023-12-20T02:44:05;2.50;99.90
14798;DHT22;7490;63.708;20.368;2023-12-20T02:46:31;2.60;99.90
14798;DHT22;7490;63.708;20.368;2023-12-20T02:48:56;2.60;99.90
14798;DHT22;7490;63.708;20.368;2023-12-20T02:51:22;2.60;99.90
14798;DHT22;7490;63.708;20.368;2023-12-20T02:53:48;2.50;99.90
14798;DHT22;7490;63.708;20.368;2023-12-20T02:56:13;2.50;99.90
14798;DHT22;7490;63.708;20.368;2023-12-20T02:58:40;2.50;99.90
14798;DHT22;7490;63.708;20.368;2023-12-20T03:01:05;2.40;99.90
14798;DHT22;7490;63.708;20.368;2023-12-20T03:03:31;2.40;99.90
14798;DHT22;7490;63.708;20.368;2023-12-20T03:05:57;2.40;99.90
14798;DHT22;7490;63.708;20.368;2023-12-20T03:08:23;2.40;99.90
14798;DHT22;7490;63.708;20.368;2023-12-20T03:10:48;2.40;99.90
14798;DHT22;7490;63.708;20.368;2023-12-20T03:13:14;2.30;99.90
14798;DHT22;7490;63.708;20.368;2023-12-20T03:15:40;2.30;99.90
14798;DHT22;7490;63.708;20.368;2023-12-20T03:18:05;2.30;99.90
14798;DHT22;7490;63.708;20.368;2023-12-20T03:20:31;2.30;99.90
14798;DHT22;7490;63.708;20.368;2023-12-20T03:23:00;2.30;99.90
14798;DHT22;7490;63.708;20.368;2023-12-20T03:25:26;2.30;99.90
14798;DHT22;7490;63.708;20.368;2023-12-20T03:27:52;2.20;99.90
14798;DHT22;7490;63.708;20.368;2023-12-20T03:30:18;2.20;99.90
14798;DHT22;7490;63.708;20.368;2023-12-20T03:32:44;2.20;99.90
14798;DHT22;7490;63.708;20.368;2023-12-20T03:35:10;2.20;99.90
14798;DHT22;7490;63.708;20.368;2023-12-20T03:37:35;2.10;99.90
14798;DHT22;7490;63.708;20.368;2023-12-20T03:40:01;2.10;99.90
14798;DHT22;7490;63.708;20.368;2023-12-20T03:42:27;2.10;99.90
14798;DHT22;7490;63.708;20.368;2023-12-20T03:44:53;2.10;99.90
14798;DHT22;7490;63.708;20.368;2023-12-20T03:47:19;2.00;99.90
14798;DHT22;7490;63.708;20.368;2023-12-20T03:49:44;2.00;99.90
14798;DHT22;7490;63.708;20.368;2023-12-20T03:52:10;2.00;99.90
14798;DHT22;7490;63.708;20.368;2023-12-20T03:54:35;1.90;99.90
14798;DHT22;7490;63.708;20.368;2023-12-20T03:57:01;1.90;99.90
14798;DHT22;7490;63.708;20.368;2023-12-20T03:59:27;1.90;99.90
14798;DHT22;7490;63.708;20.368;2023-12-20T04:01:52;1.80;99.90
14798;DHT22;7490;63.708;20.368;2023-12-20T04:04:19;1.80;99.90
14798;DHT22;7490;63.708;20.368;2023-12-20T04:06:44;1.70;99.90
14798;DHT22;7490;63.708;20.368;2023-12-20T04:09:10;1.70;99.90
14798;DHT22;7490;63.708;20.368;2023-12-20T04:11:39;1.70;99.90
14798;DHT22;7490;63.708;20.368;2023-12-20T04:14:04;1.60;99.90
14798;DHT22;7490;63.708;20.368;2023-12-20T04:16:30;1.50;99.90
14798;DHT22;7490;63.708;20.368;2023-12-20T04:18:56;1.50;99.90
14798;DHT22;7490;63.708;20.368;2023-12-20T04:21:21;1.50;99.90
14798;DHT22;7490;63.708;20.368;2023-12-20T04:23:47;1.30;99.90
14798;DHT22;7490;63.708;20.368;2023-12-20T04:26:13;1.30;99.90
14798;DHT22;7490;63.708;20.368;2023-12-20T04:28:39;1.30;99.90
14798;DHT22;7490;63.708;20.368;2023-12-20T04:31:04;1.20;99.90
14798;DHT22;7490;63.708;20.368;2023-12-20T04:33:30;1.10;99.90
14798;DHT22;7490;63.708;20.368;2023-12-20T04:35:55;1.00;99.90
14798;DHT22;7490;63.708;20.368;2023-12-20T04:38:21;1.00;99.90
14798;DHT22;7490;63.708;20.368;2023-12-20T04:40:47;0.90;99.90
14798;DHT22;7490;63.708;20.368;2023-12-20T04:43:13;0.80;99.90
14798;DHT22;7490;63.708;20.368;2023-12-20T04:45:39;0.80;99.90
14798;DHT22;7490;63.708;20.368;2023-12-20T04:48:05;0.70;99.90
14798;DHT22;7490;63.708;20.368;2023-12-20T04:50:30;0.70;99.90
14798;DHT22;7490;63.708;20.368;2023-12-20T04:52:56;0.60;99.90
14798;DHT22;7490;63.708;20.368;2023-12-20T04:55:22;0.60;99.90
14798;DHT22;7490;63.708;20.368;2023-12-20T04:57:47;0.60;99.90
14798;DHT22;7490;63.708;20.368;2023-12-20T05:00:13;0.60;99.90
14798;DHT22;7490;63.708;20.368;2023-12-20T05:02:41;0.50;99.90
14798;DHT22;7490;63.708;20.368;2023-12-20T05:05:07;0.50;99.90
14798;DHT22;7490;63.708;20.368;2023-12-20T05:07:32;0.50;99.90
14798;DHT22;7490;63.708;20.368;2023-12-20T05:09:58;0.50;99.90
14798;DHT22;7490;63.708;20.368;2023-12-20T05:12:24;0.50;99.90
14798;DHT22;7490;63.708;20.368;2023-12-20T05:14:52;0.50;99.90
14798;DHT22;7490;63.708;20.368;2023-12-20T05:17:18;0.40;99.90
14798;DHT22;7490;63.708;20.368;2023-12-20T05:19:45;0.40;99.90
14798;DHT22;7490;63.708;20.368;2023-12-20T05:22:11;0.30;99.90
14798;DHT22;7490;63.708;20.368;2023-12-20T05:24:37;0.40;99.90
14798;DHT22;7490;63.708;20.368;2023-12-20T05:27:02;0.30;99.90
14798;DHT22;7490;63.708;20.368;2023-12-20T05:29:28;0.30;99.90
14798;DHT22;7490;63.708;20.368;2023-12-20T05:31:54;0.30;99.90
14798;DHT22;7490;63.708;20.368;2023-12-20T05:34:19;0.20;99.90
14798;DHT22;7490;63.708;20.368;2023-12-20T05:36:45;0.10;99.90
14798;DHT22;7490;63.708;20.368;2023-12-20T05:39:11;0.10;99.90
14798;DHT22;7490;63.708;20.368;2023-12-20T05:41:37;0.00;99.90
14798;DHT22;7490;63.708;20.368;2023-12-20T05:44:02;0.00;99.90
14798;DHT22;7490;63.708;20.368;2023-12-20T05:46:28;-0.10;99.90
14798;DHT22;7490;63.708;20.368;2023-12-20T05:48:54;-0.10;99.90
14798;DHT22;7490;63.708;20.368;2023-12-20T05:51:19;-0.20;99.90
14798;DHT22;7490;63.708;20.368;2023-12-20T05:53:45;-0.30;99.90
14798;DHT22;7490;63.708;20.368;2023-12-20T05:56:11;-0.30;99.90
14798;DHT22;7490;63.708;20.368;2023-12-20T05:58:38;-0.40;99.90
14798;DHT22;7490;63.708;20.368;2023-12-20T06:01:04;-0.40;99.90
14798;DHT22;7490;63.708;20.368;2023-12-20T06:03:30;-0.50;99.90
14798;DHT22;7490;63.708;20.368;2023-12-20T06:05:56;-0.50;99.90
14798;DHT22;7490;63.708;20.368;2023-12-20T06:08:22;-0.60;99.90
14798;DHT22;7490;63.708;20.368;2023-12-20T06:10:47;-0.60;99.90
14798;DHT22;7490;63.708;20.368;2023-12-20T06:13:13;-0.70;99.90
14798;DHT22;7490;63.708;20.368;2023-12-20T06:15:39;-0.80;99.90
14798;DHT22;7490;63.708;20.368;2023-12-20T06:18:06;-0.80;99.90
14798;DHT22;7490;63.708;20.368;2023-12-20T06:20:32;-0.80;99.90
14798;DHT22;7490;63.708;20.368;2023-12-20T06:22:58;-0.90;99.90
14798;DHT22;7490;63.708;20.368;2023-12-20T06:25:23;-0.90;99.90
14798;DHT22;7490;63.708;20.368;2023-12-20T06:27:49;-0.90;99.90
14798;DHT22;7490;63.708;20.368;2023-12-20T06:30:15;-1.00;99.90
14798;DHT22;7490;63.708;20.368;2023-12-20T06:32:41;-1.00;99.90
14798;DHT22;7490;63.708;20.368;2023-12-20T06:35:10;-1.00;99.90
14798;DHT22;7490;63.708;20.368;2023-12-20T06:37:36;-1.10;99.90
14798;DHT22;7490;63.708;20.368;2023-12-20T06:40:02;-1.10;99.90
14798;DHT22;7490;63.708;20.368;2023-12-20T06:42:27;-1.20;99.90
14798;DHT22;7490;63.708;20.368;2023-12-20T06:44:53;-1.20;99.90
14798;DHT22;7490;63.708;20.368;2023-12-20T06:47:18;-1.30;99.90
14798;DHT22;7490;63.708;20.368;2023-12-20T06:49:44;-1.20;99.90
14798;DHT22;7490;63.708;20.368;2023-12-20T06:52:10;-1.30;99.90
14798;DHT22;7490;63.708;20.368;2023-12-20T06:54:35;-1.30;99.90
14798;DHT22;7490;63.708;20.368;2023-12-20T06:57:01;-1.40;99.90
14798;DHT22;7490;63.708;20.368;2023-12-20T06:59:29;-1.40;99.90
14798;DHT22;7490;63.708;20.368;2023-12-20T07:01:55;-1.50;99.90
14798;DHT22;7490;63.708;20.368;2023-12-20T07:04:20;-1.50;99.90
14798;DHT22;7490;63.708;20.368;2023-12-20T07:06:48;-1.50;99.90
14798;DHT22;7490;63.708;20.368;2023-12-20T07:09:16;-1.60;99.90
14798;DHT22;7490;63.708;20.368;2023-12-20T07:11:42;-1.60;99.90
14798;DHT22;7490;63.708;20.368;2023-12-20T07:14:07;-1.60;99.90
14798;DHT22;7490;63.708;20.368;2023-12-20T07:16:34;-1.70;99.90
14798;DHT22;7490;63.708;20.368;2023-12-20T07:19:00;-1.70;99.90
14798;DHT22;7490;63.708;20.368;2023-12-20T07:21:25;-1.70;99.90
14798;DHT22;7490;63.708;20.368;2023-12-20T07:23:51;-1.70;99.90
14798;DHT22;7490;63.708;20.368;2023-12-20T07:26:18;-1.80;99.90
14798;DHT22;7490;63.708;20.368;2023-12-20T07:28:43;-1.80;99.90
14798;DHT22;7490;63.708;20.368;2023-12-20T07:31:09;-1.90;99.90
14798;DHT22;7490;63.708;20.368;2023-12-20T07:33:35;-1.90;99.90
14798;DHT22;7490;63.708;20.368;2023-12-20T07:36:00;-2.00;99.90
14798;DHT22;7490;63.708;20.368;2023-12-20T07:38:26;-2.00;99.90
14798;DHT22;7490;63.708;20.368;2023-12-20T07:40:52;-2.00;99.90
14798;DHT22;7490;63.708;20.368;2023-12-20T07:43:17;-2.10;99.90
14798;DHT22;7490;63.708;20.368;2023-12-20T07:45:43;-2.10;99.90
14798;DHT22;7490;63.708;20.368;2023-12-20T07:48:08;-2.10;99.90
14798;DHT22;7490;63.708;20.368;2023-12-20T07:50:34;-2.10;99.90
14798;DHT22;7490;63.708;20.368;2023-12-20T07:53:00;-2.10;99.90
14798;DHT22;7490;63.708;20.368;2023-12-20T07:55:27;-2.10;99.90
14798;DHT22;7490;63.708;20.368;2023-12-20T07:57:53;-2.10;99.90
14798;DHT22;7490;63.708;20.368;2023-12-20T08:00:18;-2.10;99.90
14798;DHT22;7490;63.708;20.368;2023-12-20T08:02:44;-2.20;99.90
14798;DHT22;7490;63.708;20.368;2023-12-20T08:05:10;-2.10;99.90
14798;DHT22;7490;63.708;20.368;2023-12-20T08:07:36;-2.10;99.90
14798;DHT22;7490;63.708;20.368;2023-12-20T08:10:02;-2.10;99.90
14798;DHT22;7490;63.708;20.368;2023-12-20T08:12:27;-2.10;99.90
14798;DHT22;7490;63.708;20.368;2023-12-20T08:14:54;-2.10;99.90
14798;DHT22;7490;63.708;20.368;2023-12-20T08:17:20;-2.10;99.90
14798;DHT22;7490;63.708;20.368;2023-12-20T08:19:45;-2.10;99.90
14798;DHT22;7490;63.708;20.368;2023-12-20T08:22:11;-2.10;99.90
14798;DHT22;7490;63.708;20.368;2023-12-20T08:24:37;-2.10;99.90
14798;DHT22;7490;63.708;20.368;2023-12-20T08:27:04;-2.10;99.90
14798;DHT22;7490;63.708;20.368;2023-12-20T08:29:29;-2.10;99.90
14798;DHT22;7490;63.708;20.368;2023-12-20T08:31:55;-2.10;99.90
14798;DHT22;7490;63.708;20.368;2023-12-20T08:34:21;-2.10;99.90
14798;DHT22;7490;63.708;20.368;2023-12-20T08:36:46;-2.10;99.90
14798;DHT22;7490;63.708;20.368;2023-12-20T08:39:12;-2.10;99.90
14798;DHT22;7490;63.708;20.368;2023-12-20T08:41:38;-2.10;99.90
14798;DHT22;7490;63.708;20.368;2023-12-20T08:44:04;-2.10;99.90
14798;DHT22;7490;63.708;20.368;2023-12-20T08:46:29;-2.10;99.90
14798;DHT22;7490;63.708;20.368;2023-12-20T08:48:55;-2.10;99.90
14798;DHT22;7490;63.708;20.368;2023-12-20T08:51:21;-2.10;99.90
14798;DHT22;7490;63.708;20.368;2023-12-20T08:53:49;-2.10;99.90
14798;DHT22;7490;63.708;20.368;2023-12-20T08:56:15;-2.10;99.90
14798;DHT22;7490;63.708;20.368;2023-12-20T08:58:40;-2.10;99.90
14798;DHT22;7490;63.708;20.368;2023-12-20T09:01:07;-2.10;99.90
14798;DHT22;7490;63.708;20.368;2023-12-20T09:03:33;-2.10;99.90
14798;DHT22;7490;63.708;20.368;2023-12-20T09:05:58;-2.10;99.90
14798;DHT22;7490;63.708;20.368;2023-12-20T09:08:24;-2.10;99.90
14798;DHT22;7490;63.708;20.368;2023-12-20T09:10:50;-2.10;99.90
14798;DHT22;7490;63.708;20.368;2023-12-20T09:13:15;-2.10;99.90
14798;DHT22;7490;63.708;20.368;2023-12-20T09:15:41;-2.10;99.90
14798;DHT22;7490;63.708;20.368;2023-12-20T09:18:07;-2.10;99.90
14798;DHT22;7490;63.708;20.368;2023-12-20T09:20:33;-2.10;99.90
14798;DHT22;7490;63.708;20.368;2023-12-20T09:22:59;-2.10;99.90
14798;DHT22;7490;63.708;20.368;2023-12-20T09:25:25;-2.10;99.90
14798;DHT22;7490;63.708;20.368;2023-12-20T09:27:52;-2.10;99.90
14798;DHT22;7490;63.708;20.368;2023-12-20T09:30:18;-2.10;99.90
14798;DHT22;7490;63.708;20.368;2023-12-20T09:32:45;-2.00;99.90
14798;DHT22;7490;63.708;20.368;2023-12-20T09:35:10;-2.00;99.90
14798;DHT22;7490;63.708;20.368;2023-12-20T09:37:36;-2.00;99.90
14798;DHT22;7490;63.708;20.368;2023-12-20T09:40:02;-2.00;99.90
14798;DHT22;7490;63.708;20.368;2023-12-20T09:42:59;-2.00;99.90
14798;DHT22;7490;63.708;20.368;2023-12-20T09:45:27;-2.00;99.90
14798;DHT22;7490;63.708;20.368;2023-12-20T09:47:53;-2.10;99.90
14798;DHT22;7490;63.708;20.368;2023-12-20T09:50:22;-2.10;99.90
14798;DHT22;7490;63.708;20.368;2023-12-20T09:52:50;-2.10;99.90
14798;DHT22;7490;63.708;20.368;2023-12-20T09:55:20;-2.00;99.90
14798;DHT22;7490;63.708;20.368;2023-12-20T09:57:47;-2.00;99.90
14798;DHT22;7490;63.708;20.368;2023-12-20T10:00:14;-2.00;99.90
14798;DHT22;7490;63.708;20.368;2023-12-20T10:02:47;-2.00;99.90
14798;DHT22;7490;63.708;20.368;2023-12-20T10:05:16;-2.10;99.90
14798;DHT22;7490;63.708;20.368;2023-12-20T10:07:45;-2.10;99.90
14798;DHT22;7490;63.708;20.368;2023-12-20T10:10:12;-2.10;99.90
14798;DHT22;7490;63.708;20.368;2023-12-20T10:12:38;-2.10;99.90
14798;DHT22;7490;63.708;20.368;2023-12-20T10:15:05;-2.00;99.90
14798;DHT22;7490;63.708;20.368;2023-12-20T10:17:31;-1.80;99.90
14798;DHT22;7490;63.708;20.368;2023-12-20T10:19:57;-1.60;99.90
14798;DHT22;7490;63.708;20.368;2023-12-20T10:22:24;-1.30;99.90
14798;DHT22;7490;63.708;20.368;2023-12-20T10:24:49;-1.00;99.90
14798;DHT22;7490;63.708;20.368;2023-12-20T10:27:18;-0.80;99.90
14798;DHT22;7490;63.708;20.368;2023-12-20T10:29:44;-0.80;99.90
14798;DHT22;7490;63.708;20.368;2023-12-20T10:32:22;-0.80;99.90
14798;DHT22;7490;63.708;20.368;2023-12-20T10:34:49;-0.90;99.90
14798;DHT22;7490;63.708;20.368;2023-12-20T10:37:15;-1.10;99.90
14798;DHT22;7490;63.708;20.368;2023-12-20T10:39:42;-1.30;99.90
14798;DHT22;7490;63.708;20.368;2023-12-20T10:42:10;-1.40;99.90
14798;DHT22;7490;63.708;20.368;2023-12-20T10:44:36;-1.40;99.90
14798;DHT22;7490;63.708;20.368;2023-12-20T10:47:03;-1.50;99.90
14798;DHT22;7490;63.708;20.368;2023-12-20T10:49:30;-1.60;99.90
14798;DHT22;7490;63.708;20.368;2023-12-20T10:51:57;-1.60;99.90
14798;DHT22;7490;63.708;20.368;2023-12-20T10:54:25;-1.50;99.90
14798;DHT22;7490;63.708;20.368;2023-12-20T10:56:52;-1.40;99.90
14798;DHT22;7490;63.708;20.368;2023-12-20T10:59:20;-1.50;99.90
14798;DHT22;7490;63.708;20.368;2023-12-20T11:01:47;-1.60;99.90
14798;DHT22;7490;63.708;20.368;2023-12-20T11:04:22;-1.70;99.90
14798;DHT22;7490;63.708;20.368;2023-12-20T11:09:42;-1.90;99.90
14798;DHT22;7490;63.708;20.368;2023-12-20T11:12:24;-2.00;99.90
14798;DHT22;7490;63.708;20.368;2023-12-20T11:14:54;-2.10;99.90
14798;DHT22;7490;63.708;20.368;2023-12-20T11:17:22;-2.20;99.90
14798;DHT22;7490;63.708;20.368;2023-12-20T11:22:20;-2.30;99.90
14798;DHT22;7490;63.708;20.368;2023-12-20T11:24:46;-2.40;99.90
14798;DHT22;7490;63.708;20.368;2023-12-20T11:27:13;-2.40;99.90
14798;DHT22;7490;63.708;20.368;2023-12-20T11:29:39;-2.40;99.90
14798;DHT22;7490;63.708;20.368;2023-12-20T11:34:54;-2.40;99.90
14798;DHT22;7490;63.708;20.368;2023-12-20T11:37:21;-2.50;99.90
14798;DHT22;7490;63.708;20.368;2023-12-20T11:40:06;-2.60;99.90
14798;DHT22;7490;63.708;20.368;2023-12-20T11:42:41;-2.60;99.90
14798;DHT22;7490;63.708;20.368;2023-12-20T11:45:11;-2.70;99.90
14798;DHT22;7490;63.708;20.368;2023-12-20T11:47:40;-2.80;99.90
14798;DHT22;7490;63.708;20.368;2023-12-20T11:50:07;-2.80;99.90
14798;DHT22;7490;63.708;20.368;2023-12-20T11:52:33;-2.90;99.90
14798;DHT22;7490;63.708;20.368;2023-12-20T11:54:59;-2.90;99.90
14798;DHT22;7490;63.708;20.368;2023-12-20T11:57:25;-3.00;99.90
14798;DHT22;7490;63.708;20.368;2023-12-20T11:59:51;-3.00;99.90
14798;DHT22;7490;63.708;20.368;2023-12-20T12:02:16;-3.10;99.90
14798;DHT22;7490;63.708;20.368;2023-12-20T12:04:42;-3.10;99.90
14798;DHT22;7490;63.708;20.368;2023-12-20T12:07:08;-3.10;99.90
14798;DHT22;7490;63.708;20.368;2023-12-20T12:09:34;-3.20;99.90
14798;DHT22;7490;63.708;20.368;2023-12-20T12:12:00;-3.20;99.90
14798;DHT22;7490;63.708;20.368;2023-12-20T12:14:26;-3.20;99.90
14798;DHT22;7490;63.708;20.368;2023-12-20T12:16:52;-3.30;99.90
14798;DHT22;7490;63.708;20.368;2023-12-20T12:19:25;-3.30;99.90
14798;DHT22;7490;63.708;20.368;2023-12-20T12:22:04;-3.30;99.90
14798;DHT22;7490;63.708;20.368;2023-12-20T12:24:36;-3.30;99.90
14798;DHT22;7490;63.708;20.368;2023-12-20T12:27:02;-3.40;99.90
14798;DHT22;7490;63.708;20.368;2023-12-20T12:29:27;-3.40;99.90
14798;DHT22;7490;63.708;20.368;2023-12-20T12:31:54;-3.40;99.90
14798;DHT22;7490;63.708;20.368;2023-12-20T12:34:20;-3.50;99.90
14798;DHT22;7490;63.708;20.368;2023-12-20T12:36:46;-3.50;99.90
14798;DHT22;7490;63.708;20.368;2023-12-20T12:39:15;-3.50;99.90
14798;DHT22;7490;63.708;20.368;2023-12-20T12:41:43;-3.50;99.90
14798;DHT22;7490;63.708;20.368;2023-12-20T12:44:08;-3.60;99.90
14798;DHT22;7490;63.708;20.368;2023-12-20T12:46:34;-3.50;99.90
14798;DHT22;7490;63.708;20.368;2023-12-20T12:49:00;-3.60;99.90
14798;DHT22;7490;63.708;20.368;2023-12-20T12:51:25;-3.60;99.90
14798;DHT22;7490;63.708;20.368;2023-12-20T12:53:51;-3.60;99.90
14798;DHT22;7490;63.708;20.368;2023-12-20T12:56:17;-3.60;99.90
14798;DHT22;7490;63.708;20.368;2023-12-20T12:58:43;-3.70;99.90
14798;DHT22;7490;63.708;20.368;2023-12-20T13:01:08;-3.80;99.90
14798;DHT22;7490;63.708;20.368;2023-12-20T13:03:35;-3.80;99.90
14798;DHT22;7490;63.708;20.368;2023-12-20T13:06:01;-3.90;99.90
14798;DHT22;7490;63.708;20.368;2023-12-20T13:08:27;-3.90;99.90
14798;DHT22;7490;63.708;20.368;2023-12-20T13:10:54;-4.00;99.90
14798;DHT22;7490;63.708;20.368;2023-12-20T13:13:20;-4.00;99.90
14798;DHT22;7490;63.708;20.368;2023-12-20T13:15:46;-4.10;99.90
14798;DHT22;7490;63.708;20.368;2023-12-20T13:18:17;-4.10;99.90
14798;DHT22;7490;63.708;20.368;2023-12-20T13:20:44;-4.10;99.90
14798;DHT22;7490;63.708;20.368;2023-12-20T13:23:09;-4.20;99.90
14798;DHT22;7490;63.708;20.368;2023-12-20T13:25:35;-4.20;99.90
14798;DHT22;7490;63.708;20.368;2023-12-20T13:28:01;-4.20;99.90
14798;DHT22;7490;63.708;20.368;2023-12-20T13:30:28;-4.30;99.90
14798;DHT22;7490;63.708;20.368;2023-12-20T13:32:53;-4.30;99.90
14798;DHT22;7490;63.708;20.368;2023-12-20T13:35:19;-4.30;99.90
14798;DHT22;7490;63.708;20.368;2023-12-20T13:37:46;-4.30;99.90
14798;DHT22;7490;63.708;20.368;2023-12-20T13:40:12;-4.40;99.90
14798;DHT22;7490;63.708;20.368;2023-12-20T13:42:38;-4.40;99.90
14798;DHT22;7490;63.708;20.368;2023-12-20T13:45:05;-4.40;99.90
14798;DHT22;7490;63.708;20.368;2023-12-20T13:47:32;-4.50;99.90
14798;DHT22;7490;63.708;20.368;2023-12-20T13:49:58;-4.50;99.90
14798;DHT22;7490;63.708;20.368;2023-12-20T13:52:23;-4.50;99.90
14798;DHT22;7490;63.708;20.368;2023-12-20T13:54:49;-4.60;99.90
14798;DHT22;7490;63.708;20.368;2023-12-20T13:57:15;-4.60;99.90
14798;DHT22;7490;63.708;20.368;2023-12-20T13:59:40;-4.60;99.90
14798;DHT22;7490;63.708;20.368;2023-12-20T14:02:06;-4.70;99.90
14798;DHT22;7490;63.708;20.368;2023-12-20T14:04:32;-4.70;99.90
14798;DHT22;7490;63.708;20.368;2023-12-20T14:06:58;-4.70;99.90
14798;DHT22;7490;63.708;20.368;2023-12-20T14:09:23;-4.80;99.90
14798;DHT22;7490;63.708;20.368;2023-12-20T14:11:49;-4.80;99.90
14798;DHT22;7490;63.708;20.368;2023-12-20T14:14:15;-4.80;99.90
14798;DHT22;7490;63.708;20.368;2023-12-20T14:16:41;-4.90;99.90
14798;DHT22;7490;63.708;20.368;2023-12-20T14:19:09;-4.90;99.90
14798;DHT22;7490;63.708;20.368;2023-12-20T14:21:35;-5.00;99.90
14798;DHT22;7490;63.708;20.368;2023-12-20T14:24:00;-5.00;99.90
14798;DHT22;7490;63.708;20.368;2023-12-20T14:26:26;-5.10;99.90
14798;DHT22;7490;63.708;20.368;2023-12-20T14:28:53;-5.10;99.90
14798;DHT22;7490;63.708;20.368;2023-12-20T14:31:19;-5.20;99.90
14798;DHT22;7490;63.708;20.368;2023-12-20T14:33:44;-5.20;99.90
14798;DHT22;7490;63.708;20.368;2023-12-20T14:36:11;-5.20;99.90
14798;DHT22;7490;63.708;20.368;2023-12-20T14:38:37;-5.30;99.90
14798;DHT22;7490;63.708;20.368;2023-12-20T14:41:03;-5.30;99.90
14798;DHT22;7490;63.708;20.368;2023-12-20T14:43:29;-5.30;99.90
14798;DHT22;7490;63.708;20.368;2023-12-20T14:45:55;-5.20;99.90
14798;DHT22;7490;63.708;20.368;2023-12-20T14:48:21;-5.30;99.90
14798;DHT22;7490;63.708;20.368;2023-12-20T14:50:47;-5.30;99.90
14798;DHT22;7490;63.708;20.368;2023-12-20T14:53:14;-5.20;99.90
14798;DHT22;7490;63.708;20.368;2023-12-20T14:55:44;-5.20;99.90
14798;DHT22;7490;63.708;20.368;2023-12-20T14:58:10;-5.20;99.90
14798;DHT22;7490;63.708;20.368;2023-12-20T15:00:35;-5.30;99.90
14798;DHT22;7490;63.708;20.368;2023-12-20T15:03:01;-5.30;99.90
14798;DHT22;7490;63.708;20.368;2023-12-20T15:05:27;-5.30;99.90
14798;DHT22;7490;63.708;20.368;2023-12-20T15:07:52;-5.30;99.90
14798;DHT22;7490;63.708;20.368;2023-12-20T15:10:18;-5.40;99.90
14798;DHT22;7490;63.708;20.368;2023-12-20T15:12:44;-5.40;99.90
14798;DHT22;7490;63.708;20.368;2023-12-20T15:15:11;-5.40;99.90
14798;DHT22;7490;63.708;20.368;2023-12-20T15:17:37;-5.40;99.90
14798;DHT22;7490;63.708;20.368;2023-12-20T15:20:03;-5.50;99.90
14798;DHT22;7490;63.708;20.368;2023-12-20T15:22:30;-5.50;99.90
14798;DHT22;7490;63.708;20.368;2023-12-20T15:24:56;-5.50;99.90
14798;DHT22;7490;63.708;20.368;2023-12-20T15:27:22;-5.50;99.90
14798;DHT22;7490;63.708;20.368;2023-12-20T15:29:48;-5.60;99.90
14798;DHT22;7490;63.708;20.368;2023-12-20T15:32:15;-5.60;99.90
14798;DHT22;7490;63.708;20.368;2023-12-20T15:34:41;-5.60;99.90
14798;DHT22;7490;63.708;20.368;2023-12-20T15:37:07;-5.70;99.90
14798;DHT22;7490;63.708;20.368;2023-12-20T15:39:32;-5.70;99.90